sensor_id;sensor_type;location;lat;lon;timestamp;pressure;altitude;pressure_sealevel;temperature;humidity
74422;BME280;62856;51.446;8.360;2022-11-15T00:00:27;97334.41;;;11.49;94.55
74422;BME280;62856;51.446;8.360;2022-11-15T00:02:53;97332.03;;;11.48;94.28
74422;BME280;62856;51.446;8.360;2022-11-15T00:05:18;97327.13;;;11.50;94.32
74422;BME280;62856;51.446;8.360;2022-11-15T00:07:43;97329.28;;;11.61;95.85
74422;BME280;62856;51.446;8.360;2022-11-15T00:10:09;97332.13;;;11.56;95.14
74422;BME280;62856;51.446;8.360;2022-11-15T00:12:34;97325.91;;;11.56;95.71
74422;BME280;62856;51.446;8.360;2022-11-15T00:14:59;97343.59;;;11.62;96.74
74422;BME280;62856;51.446;8.360;2022-11-15T00:17:25;97325.28;;;11.59;96.53
74422;BME280;62856;51.446;8.360;2022-11-15T00:19:50;97338.28;;;11.57;96.68
74422;BME280;62856;51.446;8.360;2022-11-15T00:22:15;97328.31;;;11.57;97.19
74422;BME280;62856;51.446;8.360;2022-11-15T00:24:40;97332.91;;;11.57;96.81
74422;BME280;62856;51.446;8.360;2022-11-15T00:27:06;97330.19;;;11.57;96.95
74422;BME280;62856;51.446;8.360;2022-11-15T00:29:31;97338.47;;;11.60;97.28
74422;BME280;62856;51.446;8.360;2022-11-15T00:31:56;97335.06;;;11.68;97.97
74422;BME280;62856;51.446;8.360;2022-11-15T00:34:21;97327.28;;;11.67;97.72
74422;BME280;62856;51.446;8.360;2022-11-15T00:36:47;97329.50;;;11.65;97.69
74422;BME280;62856;51.446;8.360;2022-11-15T00:39:12;97324.09;;;11.65;97.67
74422;BME280;62856;51.446;8.360;2022-11-15T00:41:37;97327.28;;;11.67;98.04
74422;BME280;62856;51.446;8.360;2022-11-15T00:44:03;97330.47;;;11.69;97.85
74422;BME280;62856;51.446;8.360;2022-11-15T00:46:28;97343.66;;;11.70;97.76
74422;BME280;62856;51.446;8.360;2022-11-15T00:48:53;97331.25;;;11.69;97.63
74422;BME280;62856;51.446;8.360;2022-11-15T00:51:19;97333.47;;;11.67;98.10
74422;BME280;62856;51.446;8.360;2022-11-15T00:53:44;97331.94;;;11.75;97.94
74422;BME280;62856;51.446;8.360;2022-11-15T00:56:09;97343.41;;;11.80;97.98
74422;BME280;62856;51.446;8.360;2022-11-15T00:58:34;97345.00;;;11.81;97.84
74422;BME280;62856;51.446;8.360;2022-11-15T01:01:12;97344.84;;;11.78;98.11
74422;BME280;62856;51.446;8.360;2022-11-15T01:03:38;97333.41;;;11.81;97.57
74422;BME280;62856;51.446;8.360;2022-11-15T01:06:05;97332.09;;;11.78;97.07
74422;BME280;62856;51.446;8.360;2022-11-15T01:08:30;97327.03;;;11.77;97.44
74422;BME280;62856;51.446;8.360;2022-11-15T01:11:00;97322.25;;;11.74;97.23
74422;BME280;62856;51.446;8.360;2022-11-15T01:13:26;97319.25;;;11.75;97.37
74422;BME280;62856;51.446;8.360;2022-11-15T01:15:51;97317.66;;;11.74;97.04
74422;BME280;62856;51.446;8.360;2022-11-15T01:18:16;97323.53;;;11.76;96.64
74422;BME280;62856;51.446;8.360;2022-11-15T01:20:42;97329.72;;;11.77;97.01
74422;BME280;62856;51.446;8.360;2022-11-15T01:23:08;97312.75;;;11.76;96.27
74422;BME280;62856;51.446;8.360;2022-11-15T01:25:33;97322.78;;;11.84;96.64
74422;BME280;62856;51.446;8.360;2022-11-15T01:27:58;97315.81;;;11.83;96.65
74422;BME280;62856;51.446;8.360;2022-11-15T01:30:24;97321.38;;;11.87;96.97
74422;BME280;62856;51.446;8.360;2022-11-15T01:32:49;97325.16;;;11.86;97.08
74422;BME280;62856;51.446;8.360;2022-11-15T01:35:14;97314.38;;;11.86;97.01
74422;BME280;62856;51.446;8.360;2022-11-15T01:37:40;97317.25;;;11.89;97.36
74422;BME280;62856;51.446;8.360;2022-11-15T01:40:05;97296.53;;;11.76;97.14
74422;BME280;62856;51.446;8.360;2022-11-15T01:42:30;97319.16;;;11.89;97.26
74422;BME280;62856;51.446;8.360;2022-11-15T01:44:56;97298.06;;;11.91;97.46
74422;BME280;62856;51.446;8.360;2022-11-15T01:47:25;97299.50;;;11.97;97.22
74422;BME280;62856;51.446;8.360;2022-11-15T01:50:14;97291.56;;;12.00;97.17
74422;BME280;62856;51.446;8.360;2022-11-15T01:52:40;97290.47;;;12.01;96.88
74422;BME280;62856;51.446;8.360;2022-11-15T01:55:14;97293.50;;;12.00;96.70
74422;BME280;62856;51.446;8.360;2022-11-15T01:57:41;97284.28;;;12.01;96.53
74422;BME280;62856;51.446;8.360;2022-11-15T02:00:08;97290.78;;;12.00;96.60
74422;BME280;62856;51.446;8.360;2022-11-15T02:02:35;97287.94;;;12.05;96.67
74422;BME280;62856;51.446;8.360;2022-11-15T02:05:01;97300.81;;;12.08;96.73
74422;BME280;62856;51.446;8.360;2022-11-15T02:07:28;97294.63;;;12.07;96.92
74422;BME280;62856;51.446;8.360;2022-11-15T02:09:54;97292.84;;;12.03;96.32
74422;BME280;62856;51.446;8.360;2022-11-15T02:12:21;97294.63;;;12.07;96.72
74422;BME280;62856;51.446;8.360;2022-11-15T02:14:51;97294.63;;;12.07;96.48
74422;BME280;62856;51.446;8.360;2022-11-15T02:20:14;97288.25;;;12.03;96.75
74422;BME280;62856;51.446;8.360;2022-11-15T02:31:13;97281.25;;;12.02;96.56
74422;BME280;62856;51.446;8.360;2022-11-15T02:33:51;97273.78;;;11.99;96.33
74422;BME280;62856;51.446;8.360;2022-11-15T02:39:27;97275.53;;;12.04;96.46
74422;BME280;62856;51.446;8.360;2022-11-15T02:42:07;97272.81;;;12.04;96.27
74422;BME280;62856;51.446;8.360;2022-11-15T02:44:55;97277.75;;;12.02;96.70
74422;BME280;62856;51.446;8.360;2022-11-15T02:47:24;97279.22;;;12.08;96.84
74422;BME280;62856;51.446;8.360;2022-11-15T02:49:53;97270.78;;;12.09;96.77
74422;BME280;62856;51.446;8.360;2022-11-15T02:52:21;97277.81;;;12.10;96.83
74422;BME280;62856;51.446;8.360;2022-11-15T02:54:58;97269.53;;;12.07;96.68
74422;BME280;62856;51.446;8.360;2022-11-15T02:57:45;97266.69;;;12.12;97.21
74422;BME280;62856;51.446;8.360;2022-11-15T03:00:18;97257.59;;;12.08;97.04
74422;BME280;62856;51.446;8.360;2022-11-15T03:10:13;97266.19;;;12.10;96.63
74422;BME280;62856;51.446;8.360;2022-11-15T03:12:48;97259.97;;;12.09;96.22
74422;BME280;62856;51.446;8.360;2022-11-15T03:15:26;97262.38;;;12.11;96.12
74422;BME280;62856;51.446;8.360;2022-11-15T03:17:59;97255.88;;;12.12;96.19
74422;BME280;62856;51.446;8.360;2022-11-15T03:20:26;97249.97;;;12.10;96.45
74422;BME280;62856;51.446;8.360;2022-11-15T03:22:54;97259.97;;;12.09;95.89
74422;BME280;62856;51.446;8.360;2022-11-15T03:25:23;97249.97;;;12.10;96.23
74422;BME280;62856;51.446;8.360;2022-11-15T03:27:53;97248.09;;;12.10;96.05
74422;BME280;62856;51.446;8.360;2022-11-15T03:30:20;97238.06;;;12.11;95.90
74422;BME280;62856;51.446;8.360;2022-11-15T03:32:53;97236.47;;;12.10;95.52
74422;BME280;62856;51.446;8.360;2022-11-15T03:35:22;97244.56;;;12.10;95.66
74422;BME280;62856;51.446;8.360;2022-11-15T03:37:57;97242.19;;;12.08;95.36
74422;BME280;62856;51.446;8.360;2022-11-15T03:40:41;97244.56;;;12.10;95.17
74422;BME280;62856;51.446;8.360;2022-11-15T03:43:28;97251.56;;;12.11;95.34
74422;BME280;62856;51.446;8.360;2022-11-15T03:46:05;97243.94;;;12.13;94.99
74422;BME280;62856;51.446;8.360;2022-11-15T03:48:36;97243.16;;;12.12;95.07
74422;BME280;62856;51.446;8.360;2022-11-15T03:51:05;97254.16;;;12.16;94.98
74422;BME280;62856;51.446;8.360;2022-11-15T03:53:30;97240.75;;;12.11;95.46
74422;BME280;62856;51.446;8.360;2022-11-15T03:55:57;97256.84;;;12.16;95.41
74422;BME280;62856;51.446;8.360;2022-11-15T03:58:22;97250.31;;;12.17;95.44
74422;BME280;62856;51.446;8.360;2022-11-15T04:00:47;97253.81;;;12.17;95.66
74422;BME280;62856;51.446;8.360;2022-11-15T04:03:12;97242.78;;;12.05;95.00
74422;BME280;62856;51.446;8.360;2022-11-15T04:05:38;97257.16;;;12.14;94.96
74422;BME280;62856;51.446;8.360;2022-11-15T04:08:03;97258.44;;;12.17;95.02
74422;BME280;62856;51.446;8.360;2022-11-15T04:10:28;97250.00;;;12.18;95.22
74422;BME280;62856;51.446;8.360;2022-11-15T04:12:54;97257.63;;;12.16;94.76
74422;BME280;62856;51.446;8.360;2022-11-15T04:15:21;97259.06;;;12.22;95.34
74422;BME280;62856;51.446;8.360;2022-11-15T04:17:49;97261.94;;;12.26;94.94
74422;BME280;62856;51.446;8.360;2022-11-15T04:20:18;97259.56;;;12.24;94.99
74422;BME280;62856;51.446;8.360;2022-11-15T04:23:23;97257.50;;;12.21;94.65
74422;BME280;62856;51.446;8.360;2022-11-15T04:26:19;97250.66;;;12.24;94.41
74422;BME280;62856;51.446;8.360;2022-11-15T04:28:45;97253.69;;;12.22;94.55
74422;BME280;62856;51.446;8.360;2022-11-15T04:31:29;97259.88;;;12.23;94.24
74422;BME280;62856;51.446;8.360;2022-11-15T04:33:55;97259.88;;;12.23;94.12
74422;BME280;62856;51.446;8.360;2022-11-15T04:36:20;97247.63;;;12.25;93.66
74422;BME280;62856;51.446;8.360;2022-11-15T04:39:05;97258.16;;;12.27;93.83
74422;BME280;62856;51.446;8.360;2022-11-15T04:41:30;97257.66;;;12.25;93.74
74422;BME280;62856;51.446;8.360;2022-11-15T04:43:55;97250.03;;;12.27;93.34
74422;BME280;62856;51.446;8.360;2022-11-15T04:46:22;97261.34;;;12.29;93.12
74422;BME280;62856;51.446;8.360;2022-11-15T04:48:48;97249.25;;;12.26;93.20
74422;BME280;62856;51.446;8.360;2022-11-15T04:51:14;97249.25;;;12.26;93.49
74422;BME280;62856;51.446;8.360;2022-11-15T04:53:39;97250.34;;;12.25;93.05
74422;BME280;62856;51.446;8.360;2022-11-15T04:56:04;97246.84;;;12.25;92.84
74422;BME280;62856;51.446;8.360;2022-11-15T04:58:29;97248.44;;;12.26;92.77
74422;BME280;62856;51.446;8.360;2022-11-15T05:00:55;97251.94;;;12.26;92.39
74422;BME280;62856;51.446;8.360;2022-11-15T05:03:20;97241.94;;;12.27;92.62
74422;BME280;62856;51.446;8.360;2022-11-15T05:06:05;97244.31;;;12.28;92.79
74422;BME280;62856;51.446;8.360;2022-11-15T05:08:30;97251.63;;;12.28;92.62
74422;BME280;62856;51.446;8.360;2022-11-15T05:10:55;97251.63;;;12.28;92.51
74422;BME280;62856;51.446;8.360;2022-11-15T05:13:20;97235.56;;;12.31;92.25
74422;BME280;62856;51.446;8.360;2022-11-15T05:15:46;97240.81;;;12.28;91.73
74422;BME280;62856;51.446;8.360;2022-11-15T05:18:12;97237.47;;;12.31;92.32
74422;BME280;62856;51.446;8.360;2022-11-15T05:20:37;97234.78;;;12.31;91.69
74422;BME280;62856;51.446;8.360;2022-11-15T05:23:02;97235.25;;;12.33;91.56
74422;BME280;62856;51.446;8.360;2022-11-15T05:25:28;97236.69;;;12.30;91.84
74422;BME280;62856;51.446;8.360;2022-11-15T05:27:53;97230.81;;;12.28;91.28
74422;BME280;62856;51.446;8.360;2022-11-15T05:30:19;97228.91;;;12.29;91.64
74422;BME280;62856;51.446;8.360;2022-11-15T05:32:44;97225.41;;;12.28;91.92
74422;BME280;62856;51.446;8.360;2022-11-15T05:35:15;97230.00;;;12.28;91.74
74422;BME280;62856;51.446;8.360;2022-11-15T05:37:43;97225.75;;;12.36;91.66
74422;BME280;62856;51.446;8.360;2022-11-15T05:40:09;97227.03;;;12.38;91.87
74422;BME280;62856;51.446;8.360;2022-11-15T05:42:34;97231.94;;;12.36;92.05
74422;BME280;62856;51.446;8.360;2022-11-15T05:45:02;97231.78;;;12.32;92.33
74422;BME280;62856;51.446;8.360;2022-11-15T05:47:30;97233.22;;;12.39;92.50
74422;BME280;62856;51.446;8.360;2022-11-15T05:49:56;97227.97;;;12.33;92.91
74422;BME280;62856;51.446;8.360;2022-11-15T05:52:25;97227.97;;;12.33;92.24
74422;BME280;62856;51.446;8.360;2022-11-15T05:54:52;97227.97;;;12.33;92.20
74422;BME280;62856;51.446;8.360;2022-11-15T05:57:18;97230.34;;;12.35;92.43
74422;BME280;62856;51.446;8.360;2022-11-15T05:59:44;97228.75;;;12.34;92.51
74422;BME280;62856;51.446;8.360;2022-11-15T06:02:10;97216.22;;;12.38;92.85
74422;BME280;62856;51.446;8.360;2022-11-15T06:04:35;97219.03;;;12.33;92.94
74422;BME280;62856;51.446;8.360;2022-11-15T06:07:01;97222.88;;;12.32;92.78
74422;BME280;62856;51.446;8.360;2022-11-15T06:09:26;97217.63;;;12.27;92.71
74422;BME280;62856;51.446;8.360;2022-11-15T06:11:52;97222.88;;;12.32;92.57
74422;BME280;62856;51.446;8.360;2022-11-15T06:14:17;97227.47;;;12.31;92.36
74422;BME280;62856;51.446;8.360;2022-11-15T06:16:43;97228.44;;;12.36;92.54
74422;BME280;62856;51.446;8.360;2022-11-15T06:19:09;97218.56;;;12.31;92.96
74422;BME280;62856;51.446;8.360;2022-11-15T06:21:34;97218.91;;;12.38;92.63
74422;BME280;62856;51.446;8.360;2022-11-15T06:23:59;97221.75;;;12.33;92.73
74422;BME280;62856;51.446;8.360;2022-11-15T06:26:24;97224.63;;;12.37;92.89
74422;BME280;62856;51.446;8.360;2022-11-15T06:28:50;97219.53;;;12.35;92.75
74422;BME280;62856;51.446;8.360;2022-11-15T06:31:15;97224.13;;;12.34;92.31
74422;BME280;62856;51.446;8.360;2022-11-15T06:33:40;97228.13;;;12.37;92.68
74422;BME280;62856;51.446;8.360;2022-11-15T06:36:08;97230.34;;;12.35;92.65
74422;BME280;62856;51.446;8.360;2022-11-15T06:38:34;97232.56;;;12.33;92.62
74422;BME280;62856;51.446;8.360;2022-11-15T06:41:08;97230.50;;;12.39;92.74
74422;BME280;62856;51.446;8.360;2022-11-15T06:43:34;97234.00;;;12.30;92.79
74422;BME280;62856;51.446;8.360;2022-11-15T06:46:00;97237.63;;;12.34;92.85
74422;BME280;62856;51.446;8.360;2022-11-15T06:48:26;97232.88;;;12.31;92.70
74422;BME280;62856;51.446;8.360;2022-11-15T06:50:56;97233.53;;;12.37;92.93
74422;BME280;62856;51.446;8.360;2022-11-15T06:53:22;97238.44;;;12.35;92.35
74422;BME280;62856;51.446;8.360;2022-11-15T06:55:48;97241.97;;;12.36;92.31
74422;BME280;62856;51.446;8.360;2022-11-15T06:58:13;97244.97;;;12.34;92.42
74422;BME280;62856;51.446;8.360;2022-11-15T07:00:39;97250.38;;;12.34;92.49
74422;BME280;62856;51.446;8.360;2022-11-15T07:03:04;97261.03;;;12.39;92.55
74422;BME280;62856;51.446;8.360;2022-11-15T07:05:30;97246.22;;;12.28;92.20
74422;BME280;62856;51.446;8.360;2022-11-15T07:07:56;97254.00;;;12.29;92.30
74422;BME280;62856;51.446;8.360;2022-11-15T07:10:22;97253.56;;;12.36;92.03
74422;BME280;62856;51.446;8.360;2022-11-15T07:12:49;97265.16;;;12.37;91.90
74422;BME280;62856;51.446;8.360;2022-11-15T07:15:16;97259.63;;;12.42;90.80
74422;BME280;62856;51.446;8.360;2022-11-15T07:17:41;97261.03;;;12.39;91.63
74422;BME280;62856;51.446;8.360;2022-11-15T07:20:07;97274.41;;;12.44;91.11
74422;BME280;62856;51.446;8.360;2022-11-15T07:22:33;97265.81;;;12.42;90.82
74422;BME280;62856;51.446;8.360;2022-11-15T07:24:58;97265.50;;;12.44;90.66
74422;BME280;62856;51.446;8.360;2022-11-15T07:27:23;97261.84;;;12.40;90.70
74422;BME280;62856;51.446;8.360;2022-11-15T07:29:49;97262.16;;;12.38;90.90
74422;BME280;62856;51.446;8.360;2022-11-15T07:32:14;97264.38;;;12.36;90.20
74422;BME280;62856;51.446;8.360;2022-11-15T07:34:39;97257.03;;;12.37;90.02
74422;BME280;62856;51.446;8.360;2022-11-15T07:37:05;97263.75;;;12.39;89.78
74422;BME280;62856;51.446;8.360;2022-11-15T07:39:30;97269.16;;;12.39;90.05
74422;BME280;62856;51.446;8.360;2022-11-15T07:41:55;97275.53;;;12.43;88.86
74422;BME280;62856;51.446;8.360;2022-11-15T07:44:40;97268.19;;;12.44;88.89
74422;BME280;62856;51.446;8.360;2022-11-15T07:47:06;97277.09;;;12.44;87.97
74422;BME280;62856;51.446;8.360;2022-11-15T07:49:31;97281.41;;;12.45;87.85
74422;BME280;62856;51.446;8.360;2022-11-15T07:51:56;97278.84;;;12.40;87.60
74422;BME280;62856;51.446;8.360;2022-11-15T07:54:21;97282.03;;;12.42;87.34
74422;BME280;62856;51.446;8.360;2022-11-15T07:56:47;97284.13;;;12.45;86.89
74422;BME280;62856;51.446;8.360;2022-11-15T07:59:12;97302.56;;;12.43;86.87
74422;BME280;62856;51.446;8.360;2022-11-15T08:01:37;97297.16;;;12.43;86.84
74422;BME280;62856;51.446;8.360;2022-11-15T08:04:03;97296.66;;;12.41;86.36
74422;BME280;62856;51.446;8.360;2022-11-15T08:06:28;97289.81;;;12.44;86.00
74422;BME280;62856;51.446;8.360;2022-11-15T08:08:53;97289.34;;;12.42;85.88
74422;BME280;62856;51.446;8.360;2022-11-15T08:11:19;97295.53;;;12.42;85.82
74422;BME280;62856;51.446;8.360;2022-11-15T08:13:44;97283.31;;;12.45;84.94
74422;BME280;62856;51.446;8.360;2022-11-15T08:16:09;97290.13;;;12.42;85.05
74422;BME280;62856;51.446;8.360;2022-11-15T08:18:37;97273.31;;;12.45;85.14
74422;BME280;62856;51.446;8.360;2022-11-15T08:21:02;97278.72;;;12.45;84.71
74422;BME280;62856;51.446;8.360;2022-11-15T08:23:28;97269.16;;;12.48;84.71
74422;BME280;62856;51.446;8.360;2022-11-15T08:25:59;97267.91;;;12.45;84.61
74422;BME280;62856;51.446;8.360;2022-11-15T08:28:24;97273.47;;;12.49;84.59
74422;BME280;62856;51.446;8.360;2022-11-15T08:30:49;97274.25;;;12.49;84.20
74422;BME280;62856;51.446;8.360;2022-11-15T08:33:15;97273.31;;;12.54;83.19
74422;BME280;62856;51.446;8.360;2022-11-15T08:35:41;97270.44;;;12.50;83.46
74422;BME280;62856;51.446;8.360;2022-11-15T08:38:07;97271.41;;;12.54;82.91
74422;BME280;62856;51.446;8.360;2022-11-15T08:40:33;97262.03;;;12.52;82.71
74422;BME280;62856;51.446;8.360;2022-11-15T08:42:58;97260.59;;;12.54;82.50
74422;BME280;62856;51.446;8.360;2022-11-15T08:45:24;97251.84;;;12.57;82.70
74422;BME280;62856;51.446;8.360;2022-11-15T08:47:49;97260.13;;;12.52;82.75
74422;BME280;62856;51.446;8.360;2022-11-15T08:50:15;97267.44;;;12.52;82.90
74422;BME280;62856;51.446;8.360;2022-11-15T08:52:40;97264.72;;;12.52;82.79
74422;BME280;62856;51.446;8.360;2022-11-15T08:55:06;97270.28;;;12.55;82.55
74422;BME280;62856;51.446;8.360;2022-11-15T08:57:31;97263.63;;;12.53;82.09
74422;BME280;62856;51.446;8.360;2022-11-15T08:59:57;97268.22;;;12.52;82.52
74422;BME280;62856;51.446;8.360;2022-11-15T09:02:22;97267.28;;;12.57;82.50
74422;BME280;62856;51.446;8.360;2022-11-15T09:04:48;97267.91;;;12.54;82.00
74422;BME280;62856;51.446;8.360;2022-11-15T09:07:14;97263.31;;;12.54;81.97
74422;BME280;62856;51.446;8.360;2022-11-15T09:09:39;97263.16;;;12.51;82.85
74422;BME280;62856;51.446;8.360;2022-11-15T09:12:06;97263.44;;;12.49;82.37
74422;BME280;62856;51.446;8.360;2022-11-15T09:14:31;97266.34;;;12.53;82.61
74422;BME280;62856;51.446;8.360;2022-11-15T09:16:57;97270.63;;;12.54;82.96
74422;BME280;62856;51.446;8.360;2022-11-15T09:19:23;97267.09;;;12.53;82.21
74422;BME280;62856;51.446;8.360;2022-11-15T09:21:48;97264.56;;;12.57;82.69
74422;BME280;62856;51.446;8.360;2022-11-15T09:24:13;97258.22;;;12.53;82.59
74422;BME280;62856;51.446;8.360;2022-11-15T09:26:39;97248.81;;;12.50;82.94
74422;BME280;62856;51.446;8.360;2022-11-15T09:29:05;97252.19;;;12.56;83.25
74422;BME280;62856;51.446;8.360;2022-11-15T09:31:30;97253.59;;;12.53;83.11
74422;BME280;62856;51.446;8.360;2022-11-15T09:33:56;97255.03;;;12.59;83.13
74422;BME280;62856;51.446;8.360;2022-11-15T09:36:21;97263.31;;;12.63;82.64
74422;BME280;62856;51.446;8.360;2022-11-15T09:38:46;97260.28;;;12.64;82.78
74422;BME280;62856;51.446;8.360;2022-11-15T09:43:49;97274.63;;;12.65;82.42
74422;BME280;62856;51.446;8.360;2022-11-15T09:49:03;97260.78;;;12.75;81.54
74422;BME280;62856;51.446;8.360;2022-11-15T09:51:34;97247.56;;;12.73;81.63
74422;BME280;62856;51.446;8.360;2022-11-15T09:56:35;97247.75;;;12.77;81.22
74422;BME280;62856;51.446;8.360;2022-11-15T10:04:26;97246.31;;;12.88;80.99
74422;BME280;62856;51.446;8.360;2022-11-15T10:07:05;97244.91;;;12.90;80.35
74422;BME280;62856;51.446;8.360;2022-11-15T10:12:09;97243.44;;;12.84;81.49
74422;BME280;62856;51.446;8.360;2022-11-15T10:14:35;97234.84;;;12.82;81.28
74422;BME280;62856;51.446;8.360;2022-11-15T10:27:42;97204.97;;;12.96;80.20
74422;BME280;62856;51.446;8.360;2022-11-15T10:30:14;97206.69;;;13.00;79.61
74422;BME280;62856;51.446;8.360;2022-11-15T10:32:42;97214.22;;;13.03;79.25
74422;BME280;62856;51.446;8.360;2022-11-15T10:35:27;97214.81;;;13.00;78.93
74422;BME280;62856;51.446;8.360;2022-11-15T10:38:20;97208.63;;;13.00;78.84
74422;BME280;62856;51.446;8.360;2022-11-15T10:40:45;97203.84;;;13.05;77.93
74422;BME280;62856;51.446;8.360;2022-11-15T10:43:15;97190.63;;;13.04;78.04
74422;BME280;62856;51.446;8.360;2022-11-15T10:45:41;97181.75;;;13.03;77.69
74422;BME280;62856;51.446;8.360;2022-11-15T10:50:46;97184.91;;;13.05;77.44
74422;BME280;62856;51.446;8.360;2022-11-15T10:53:23;97180.75;;;12.99;78.09
74422;BME280;62856;51.446;8.360;2022-11-15T10:55:52;97180.59;;;12.96;78.86
74422;BME280;62856;51.446;8.360;2022-11-15T10:58:33;97172.16;;;12.97;78.28
74422;BME280;62856;51.446;8.360;2022-11-15T11:01:17;97171.38;;;13.05;77.17
74422;BME280;62856;51.446;8.360;2022-11-15T11:03:45;97171.38;;;13.05;77.50
74422;BME280;62856;51.446;8.360;2022-11-15T11:06:23;97164.69;;;13.11;77.59
74422;BME280;62856;51.446;8.360;2022-11-15T11:09:04;97163.44;;;13.09;77.32
74422;BME280;62856;51.446;8.360;2022-11-15T11:11:47;97156.28;;;13.04;77.47
74422;BME280;62856;51.446;8.360;2022-11-15T11:14:28;97159.78;;;13.05;77.84
74422;BME280;62856;51.446;8.360;2022-11-15T11:17:21;97155.63;;;13.07;77.68
74422;BME280;62856;51.446;8.360;2022-11-15T11:25:14;97137.59;;;13.20;74.26
74422;BME280;62856;51.446;8.360;2022-11-15T11:27:57;97136.03;;;13.19;74.23
74422;BME280;62856;51.446;8.360;2022-11-15T11:36:05;97111.66;;;13.19;73.35
74422;BME280;62856;51.446;8.360;2022-11-15T11:38:44;97112.94;;;13.21;73.48
74422;BME280;62856;51.446;8.360;2022-11-15T11:41:39;97111.16;;;13.25;73.43
74422;BME280;62856;51.446;8.360;2022-11-15T11:44:30;97108.47;;;13.25;73.19
74422;BME280;62856;51.446;8.360;2022-11-15T11:47:05;97112.47;;;13.19;73.05
74422;BME280;62856;51.446;8.360;2022-11-15T11:49:43;97094.47;;;13.23;73.15
74422;BME280;62856;51.446;8.360;2022-11-15T11:52:17;97092.53;;;13.24;72.67
74422;BME280;62856;51.446;8.360;2022-11-15T11:55:03;97096.69;;;13.30;72.12
74422;BME280;62856;51.446;8.360;2022-11-15T12:00:34;97089.50;;;13.25;72.88
74422;BME280;62856;51.446;8.360;2022-11-15T12:05:37;97089.16;;;13.36;71.04
74422;BME280;62856;51.446;8.360;2022-11-15T12:10:55;97095.06;;;13.38;70.37
74422;BME280;62856;51.446;8.360;2022-11-15T12:13:26;97088.50;;;13.39;69.68
74422;BME280;62856;51.446;8.360;2022-11-15T12:16:05;97071.16;;;13.40;70.31
74422;BME280;62856;51.446;8.360;2022-11-15T12:18:32;97075.59;;;13.44;68.69
74422;BME280;62856;51.446;8.360;2022-11-15T12:21:02;97074.63;;;13.49;68.31
74422;BME280;62856;51.446;8.360;2022-11-15T12:23:32;97073.50;;;13.50;68.39
74422;BME280;62856;51.446;8.360;2022-11-15T12:26:10;97067.13;;;13.54;67.53
74422;BME280;62856;51.446;8.360;2022-11-15T12:28:50;97063.59;;;13.54;67.08
74422;BME280;62856;51.446;8.360;2022-11-15T12:31:40;97063.59;;;13.54;67.68
74422;BME280;62856;51.446;8.360;2022-11-15T12:34:29;97049.75;;;13.55;67.22
74422;BME280;62856;51.446;8.360;2022-11-15T12:36:55;97050.53;;;13.56;66.69
74422;BME280;62856;51.446;8.360;2022-11-15T12:39:20;97060.69;;;13.67;65.26
74422;BME280;62856;51.446;8.360;2022-11-15T12:59:55;97041.66;;;13.76;64.89
74422;BME280;62856;51.446;8.360;2022-11-15T13:02:35;97040.72;;;13.72;65.60
74422;BME280;62856;51.446;8.360;2022-11-15T13:13:08;97028.59;;;13.78;65.47
74422;BME280;62856;51.446;8.360;2022-11-15T13:20:57;97037.19;;;14.00;63.86
74422;BME280;62856;51.446;8.360;2022-11-15T13:23:27;97041.34;;;13.98;63.81
74422;BME280;62856;51.446;8.360;2022-11-15T13:26:10;97031.03;;;13.91;65.43
74422;BME280;62856;51.446;8.360;2022-11-15T13:28:48;97029.13;;;13.92;65.09
74422;BME280;62856;51.446;8.360;2022-11-15T13:31:23;97019.59;;;13.86;65.36
74422;BME280;62856;51.446;8.360;2022-11-15T13:33:49;97018.03;;;13.85;65.99
74422;BME280;62856;51.446;8.360;2022-11-15T13:36:19;97009.34;;;13.91;66.01
74422;BME280;62856;51.446;8.360;2022-11-15T13:38:56;97015.56;;;13.92;65.47
74422;BME280;62856;51.446;8.360;2022-11-15T13:41:25;96994.09;;;13.87;61.09
74422;BME280;62856;51.446;8.360;2022-11-15T13:43:52;97012.28;;;13.86;61.49
74422;BME280;62856;51.446;8.360;2022-11-15T13:46:25;97006.19;;;13.89;60.95
74422;BME280;62856;51.446;8.360;2022-11-15T13:49:03;96995.22;;;13.86;61.08
74422;BME280;62856;51.446;8.360;2022-11-15T13:51:36;96998.38;;;13.88;61.39
74422;BME280;62856;51.446;8.360;2022-11-15T13:56:37;96987.22;;;13.89;61.11
74422;BME280;62856;51.446;8.360;2022-11-15T13:59:13;96988.47;;;13.92;61.43
74422;BME280;62856;51.446;8.360;2022-11-15T14:01:41;96993.69;;;13.97;61.16
74422;BME280;62856;51.446;8.360;2022-11-15T14:04:11;96982.06;;;13.96;61.08
74422;BME280;62856;51.446;8.360;2022-11-15T14:06:44;96984.34;;;13.94;60.98
74422;BME280;62856;51.446;8.360;2022-11-15T14:11:36;96984.13;;;13.99;61.63
74422;BME280;62856;51.446;8.360;2022-11-15T14:16:39;96978.25;;;13.97;61.84
74422;BME280;62856;51.446;8.360;2022-11-15T14:19:05;96977.09;;;13.98;61.47
74422;BME280;62856;51.446;8.360;2022-11-15T14:21:32;96971.03;;;14.01;61.73
74422;BME280;62856;51.446;8.360;2022-11-15T14:24:17;96957.50;;;14.01;62.09
74422;BME280;62856;51.446;8.360;2022-11-15T14:26:43;96953.53;;;13.99;61.82
74422;BME280;62856;51.446;8.360;2022-11-15T14:29:28;96952.94;;;13.93;62.69
74422;BME280;62856;51.446;8.360;2022-11-15T14:32:14;96952.78;;;13.90;62.03
74422;BME280;62856;51.446;8.360;2022-11-15T14:34:41;96949.50;;;13.84;62.42
74422;BME280;62856;51.446;8.360;2022-11-15T14:37:30;96946.13;;;13.87;62.88
74422;BME280;62856;51.446;8.360;2022-11-15T14:40:00;96938.00;;;13.87;62.92
74422;BME280;62856;51.446;8.360;2022-11-15T14:42:26;96944.06;;;13.84;63.15
74422;BME280;62856;51.446;8.360;2022-11-15T14:44:52;96947.91;;;13.83;63.09
74422;BME280;62856;51.446;8.360;2022-11-15T14:47:18;96940.69;;;13.87;63.44
74422;BME280;62856;51.446;8.360;2022-11-15T14:49:43;96931.34;;;13.85;63.90
74422;BME280;62856;51.446;8.360;2022-11-15T14:52:30;96938.31;;;13.86;63.27
74422;BME280;62856;51.446;8.360;2022-11-15T14:55:00;96938.31;;;13.86;63.77
74422;BME280;62856;51.446;8.360;2022-11-15T14:57:27;96934.50;;;13.87;64.02
74422;BME280;62856;51.446;8.360;2022-11-15T14:59:52;96932.25;;;13.89;63.49